createdAt,value
2023-05-05T00:01:42.958Z,6.75
2023-05-05T00:08:44.946Z,6.65
2023-05-05T00:15:49.154Z,6.10
2023-05-05T00:22:51.136Z,7.57
2023-05-05T00:29:53.024Z,7.22
2023-05-05T00:36:55.077Z,7.28
2023-05-05T00:43:56.978Z,6.97
2023-05-05T00:50:59.125Z,6.15
2023-05-05T00:58:03.207Z,7.18
2023-05-05T01:05:06.100Z,6.38
2023-05-05T01:12:17.563Z,5.50
2023-05-05T01:19:47.089Z,6.10
2023-05-05T01:26:54.874Z,5.03
2023-05-05T01:34:01.891Z,4.63
2023-05-05T01:41:18.558Z,5.15
2023-05-05T01:48:21.552Z,4.90
2023-05-05T01:55:26.683Z,4.10
2023-05-05T02:02:30.879Z,3.88
2023-05-05T02:09:33.216Z,3.70
2023-05-05T02:16:38.379Z,3.30
2023-05-05T02:23:40.824Z,2.90
2023-05-05T02:30:43.987Z,2.95
2023-05-05T02:37:54.794Z,2.90
2023-05-05T02:45:00.212Z,2.95
2023-05-05T02:52:02.555Z,2.80
2023-05-05T02:59:16.277Z,3.10
2023-05-05T03:06:21.445Z,2.88
2023-05-05T03:13:26.866Z,2.92
2023-05-05T03:20:29.923Z,2.60
2023-05-05T03:27:32.191Z,2.70
2023-05-05T03:34:36.087Z,3.08
2023-05-05T03:41:37.978Z,2.42
2023-05-05T03:48:40.118Z,2.58
2023-05-05T03:55:42.226Z,2.58
2023-05-05T04:02:44.494Z,2.72
2023-05-05T04:09:46.619Z,2.58
2023-05-05T04:16:48.647Z,2.90
2023-05-05T04:23:50.785Z,2.80
2023-05-05T04:30:53.099Z,2.45
2023-05-05T04:37:55.207Z,2.72
2023-05-05T04:44:57.209Z,2.67
2023-05-05T04:51:59.323Z,2.47
2023-05-05T04:59:01.412Z,2.60
2023-05-05T05:06:03.421Z,2.60
2023-05-05T05:13:05.560Z,2.53
2023-05-05T05:20:08.230Z,2.80
2023-05-05T05:27:10.566Z,2.15
2023-05-05T05:34:12.912Z,2.85
2023-05-05T05:41:15.750Z,2.90
2023-05-05T05:48:17.751Z,3.17
2023-05-05T05:55:19.819Z,2.45
2023-05-05T06:02:21.879Z,2.47
2023-05-05T06:09:23.904Z,2.55
2023-05-05T06:16:26.009Z,2.35
2023-05-05T06:23:28.024Z,2.88
2023-05-05T06:30:30.085Z,2.55
2023-05-05T06:37:32.381Z,2.90
2023-05-05T06:44:36.609Z,3.08
2023-05-05T06:51:40.092Z,3.05
2023-05-05T06:58:43.387Z,3.47
2023-05-05T07:05:45.313Z,3.22
2023-05-05T07:12:47.363Z,3.25
2023-05-05T07:19:49.366Z,3.30
2023-05-05T07:26:51.421Z,2.60
2023-05-05T07:33:53.707Z,3.00
2023-05-05T07:40:55.788Z,2.88
2023-05-05T07:47:57.818Z,3.35
2023-05-05T07:54:59.706Z,3.47
2023-05-05T08:02:01.758Z,3.70
2023-05-05T08:09:03.880Z,3.10
2023-05-05T08:16:07.512Z,3.25
2023-05-05T08:23:09.504Z,3.67
2023-05-05T08:30:13.181Z,3.10
2023-05-05T08:37:15.394Z,3.22
2023-05-05T08:44:17.482Z,3.22
2023-05-05T08:51:20.843Z,3.55
2023-05-05T08:58:24.009Z,3.50
2023-05-05T09:05:27.514Z,3.55
2023-05-05T09:12:33.159Z,3.30
2023-05-05T09:19:57.401Z,3.28
2023-05-05T09:27:00.989Z,3.42
2023-05-05T09:34:14.467Z,3.33
2023-05-05T09:41:40.036Z,3.28
2023-05-05T09:48:42.162Z,3.78
2023-05-05T09:55:58.395Z,3.28
2023-05-05T10:03:03.832Z,3.83
2023-05-05T10:10:09.024Z,3.63
2023-05-05T10:17:11.913Z,3.40
2023-05-05T10:24:50.482Z,3.60
2023-05-05T10:32:21.505Z,4.05
2023-05-05T10:39:27.020Z,3.22
2023-05-05T10:46:29.759Z,3.47
2023-05-05T10:53:48.689Z,3.30
2023-05-05T11:00:51.479Z,3.47
2023-05-05T11:07:53.603Z,3.30
2023-05-05T11:15:33.878Z,3.25
2023-05-05T11:23:05.015Z,3.35
2023-05-05T11:30:09.265Z,2.83
2023-05-05T11:37:12.002Z,2.90
2023-05-05T11:44:19.122Z,2.70
2023-05-05T11:51:22.550Z,2.83
2023-05-05T11:58:25.146Z,3.25
2023-05-05T12:05:27.517Z,3.30
2023-05-05T12:12:40.794Z,2.92
2023-05-05T12:19:48.450Z,3.20
2023-05-05T12:26:50.792Z,2.70
2023-05-05T12:33:56.147Z,2.60
2023-05-05T12:41:01.738Z,2.42
2023-05-05T12:48:24.319Z,3.03
2023-05-05T12:55:41.945Z,3.28
2023-05-05T13:02:47.208Z,2.88
2023-05-05T13:09:54.236Z,2.75
2023-05-05T13:16:58.641Z,2.63
2023-05-05T13:24:19.725Z,2.38
2023-05-05T13:31:27.195Z,2.70
2023-05-05T13:38:34.271Z,3.45
2023-05-05T13:45:39.973Z,3.00
2023-05-05T13:52:45.277Z,3.42
2023-05-05T13:59:50.367Z,2.80
2023-05-05T14:06:58.699Z,2.55
2023-05-05T14:14:03.187Z,3.10
2023-05-05T14:21:06.402Z,3.05
2023-05-05T14:28:10.683Z,2.67
2023-05-05T14:35:14.303Z,2.50
2023-05-05T14:42:18.125Z,2.45
2023-05-05T14:49:21.873Z,2.65
2023-05-05T14:56:33.975Z,2.38
2023-05-05T15:03:40.212Z,2.80
2023-05-05T15:10:44.563Z,2.50
2023-05-05T15:17:48.742Z,2.33
2023-05-05T15:24:55.418Z,2.45
2023-05-05T15:32:00.342Z,2.30
2023-05-05T15:39:05.059Z,2.70
2023-05-05T15:46:10.650Z,2.65
2023-05-05T15:53:16.689Z,2.42
2023-05-05T16:00:23.022Z,2.75
2023-05-05T16:07:28.576Z,2.17
2023-05-05T16:14:38.018Z,2.10
2023-05-05T16:21:42.991Z,2.08
2023-05-05T16:28:47.317Z,2.60
2023-05-05T16:35:52.043Z,2.25
2023-05-05T16:42:59.014Z,2.30
2023-05-05T16:50:02.534Z,2.20
2023-05-05T16:57:06.556Z,2.10
2023-05-05T17:04:10.836Z,2.05
2023-05-05T17:11:15.187Z,2.30
2023-05-05T17:18:22.909Z,2.40
2023-05-05T17:25:30.790Z,2.88
2023-05-05T17:32:35.628Z,3.40
2023-05-05T17:39:40.149Z,2.90
2023-05-05T17:46:46.054Z,3.00
2023-05-05T17:53:49.244Z,3.20
2023-05-05T18:00:55.971Z,2.80
2023-05-05T18:08:00.399Z,2.83
2023-05-05T18:15:06.895Z,4.05
2023-05-05T18:22:10.305Z,3.25
2023-05-05T18:29:14.858Z,5.75
2023-05-05T18:36:17.109Z,4.65
2023-05-05T18:43:19.176Z,4.05
2023-05-05T18:50:21.174Z,4.25
2023-05-05T18:57:23.286Z,4.55
2023-05-05T19:04:31.456Z,5.00
2023-05-05T19:11:33.999Z,9.55
2023-05-05T19:18:36.059Z,6.07
2023-05-05T19:25:38.180Z,5.40
2023-05-05T19:32:40.221Z,4.70
2023-05-05T19:39:44.702Z,4.40
2023-05-05T19:46:47.472Z,4.50
2023-05-05T19:53:50.458Z,4.80
2023-05-05T20:00:52.609Z,5.50
2023-05-05T20:07:54.716Z,4.97
2023-05-05T20:14:56.595Z,5.07
2023-05-05T20:21:58.812Z,4.95
2023-05-05T20:29:00.984Z,4.40
2023-05-05T20:36:05.156Z,4.30
2023-05-05T20:43:07.673Z,4.32
2023-05-05T20:50:10.197Z,4.50
2023-05-05T20:57:12.665Z,4.72
2023-05-05T21:04:14.689Z,3.78
2023-05-05T21:11:17.872Z,3.60
2023-05-05T21:18:22.241Z,3.95
2023-05-05T21:25:29.390Z,3.28
2023-05-05T21:32:34.959Z,3.50
2023-05-05T21:39:40.733Z,3.88
2023-05-05T21:46:46.471Z,3.65
2023-05-05T21:53:50.294Z,3.65
2023-05-05T22:00:53.958Z,3.83
2023-05-05T22:07:58.813Z,3.85
2023-05-05T22:15:03.410Z,3.95
2023-05-05T22:22:09.604Z,4.00
2023-05-05T22:29:14.386Z,3.45
2023-05-05T22:36:20.600Z,3.42
2023-05-05T22:43:23.951Z,3.78
2023-05-05T22:50:28.992Z,3.90
2023-05-05T22:57:34.357Z,3.60
2023-05-05T23:04:37.729Z,3.75
2023-05-05T23:11:42.169Z,3.88
2023-05-05T23:18:46.458Z,3.90
2023-05-05T23:25:53.125Z,3.75
2023-05-05T23:32:57.442Z,3.90
2023-05-05T23:39:59.389Z,3.20
2023-05-05T23:47:01.561Z,3.42
2023-05-05T23:54:03.783Z,3.20
